createdAt,value
2022-07-31T00:00:41.224Z,1.30
2022-07-31T00:03:09.839Z,1.20
2022-07-31T00:05:38.649Z,1.20
2022-07-31T00:08:09.943Z,1.17
2022-07-31T00:10:38.175Z,1.97
2022-07-31T00:13:05.837Z,1.40
2022-07-31T00:15:34.445Z,1.43
2022-07-31T00:18:04.212Z,1.33
2022-07-31T00:20:33.094Z,1.53
2022-07-31T00:23:00.464Z,1.63
2022-07-31T00:25:30.057Z,1.50
2022-07-31T00:28:00.599Z,1.43
2022-07-31T00:30:30.731Z,1.57
2022-07-31T00:33:00.073Z,1.83
2022-07-31T00:35:28.016Z,1.70
2022-07-31T00:38:24.766Z,1.73
2022-07-31T00:40:49.063Z,2.10
2022-07-31T00:43:16.647Z,1.77
2022-07-31T00:45:44.730Z,2.00
2022-07-31T00:48:12.182Z,1.50
2022-07-31T00:50:40.676Z,1.60
2022-07-31T00:53:09.461Z,1.60
2022-07-31T00:55:41.846Z,1.90
2022-07-31T00:58:20.656Z,1.63
2022-07-31T01:00:48.833Z,1.87
2022-07-31T01:03:16.944Z,1.70
2022-07-31T01:05:44.810Z,1.80
2022-07-31T01:08:15.132Z,2.30
2022-07-31T01:11:14.260Z,1.93
2022-07-31T01:14:15.109Z,2.03
2022-07-31T01:16:50.594Z,2.67
2022-07-31T01:19:40.749Z,2.30
2022-07-31T01:22:44.441Z,1.90
2022-07-31T01:25:36.427Z,2.40
2022-07-31T01:28:31.325Z,2.17
2022-07-31T01:31:27.044Z,2.40
2022-07-31T01:34:15.776Z,2.43
2022-07-31T01:36:50.797Z,2.70
2022-07-31T01:39:19.126Z,2.87
2022-07-31T01:41:48.937Z,3.23
2022-07-31T01:44:19.271Z,3.10
2022-07-31T01:46:49.011Z,3.00
2022-07-31T01:49:19.778Z,2.60
2022-07-31T01:51:49.607Z,3.23
2022-07-31T01:54:21.308Z,3.20
2022-07-31T01:56:50.567Z,2.97
2022-07-31T01:59:22.963Z,3.30
2022-07-31T02:01:53.811Z,3.50
2022-07-31T02:04:22.029Z,3.30
2022-07-31T02:06:53.218Z,3.60
2022-07-31T02:09:23.030Z,3.23
2022-07-31T02:11:54.676Z,3.37
2022-07-31T02:14:23.317Z,3.40
2022-07-31T02:16:51.664Z,3.10
2022-07-31T02:19:22.070Z,3.23
2022-07-31T02:21:53.175Z,4.90
2022-07-31T02:24:21.174Z,3.23
2022-07-31T02:26:49.015Z,3.23
2022-07-31T02:29:19.385Z,3.40
2022-07-31T02:32:02.064Z,3.63
2022-07-31T02:34:33.095Z,3.60
2022-07-31T02:37:03.819Z,3.67
2022-07-31T02:39:34.659Z,3.77
2022-07-31T02:42:03.900Z,2.90
2022-07-31T02:44:35.166Z,3.23
2022-07-31T02:47:05.779Z,2.90
2022-07-31T02:49:36.637Z,3.40
2022-07-31T02:52:06.489Z,3.37
2022-07-31T02:54:42.852Z,3.40
2022-07-31T02:57:11.187Z,3.27
2022-07-31T02:59:39.963Z,3.43
2022-07-31T03:02:08.314Z,3.87
2022-07-31T03:04:36.294Z,3.50
2022-07-31T03:07:04.350Z,3.57
2022-07-31T03:09:32.249Z,3.50
2022-07-31T03:12:04.565Z,3.20
2022-07-31T03:14:34.673Z,3.27
2022-07-31T03:17:03.324Z,3.83
2022-07-31T03:19:32.721Z,3.67
2022-07-31T03:22:01.143Z,3.67
2022-07-31T03:24:29.197Z,3.43
2022-07-31T03:26:57.200Z,2.90
2022-07-31T03:29:41.684Z,2.93
2022-07-31T03:32:11.216Z,3.03
2022-07-31T03:34:40.191Z,3.10
2022-07-31T03:37:10.190Z,3.30
2022-07-31T03:39:38.151Z,3.10
2022-07-31T03:42:07.778Z,2.87
2022-07-31T03:44:48.247Z,3.67
2022-07-31T03:47:16.490Z,3.97
2022-07-31T03:49:46.442Z,4.53
2022-07-31T03:52:14.739Z,4.30
2022-07-31T03:54:43.827Z,4.53
2022-07-31T03:57:12.381Z,4.37
2022-07-31T03:59:48.180Z,4.13
2022-07-31T04:02:18.679Z,4.93
2022-07-31T04:04:47.312Z,4.33
2022-07-31T04:07:14.830Z,3.93
2022-07-31T04:09:44.418Z,4.53
2022-07-31T04:12:12.108Z,4.20
2022-07-31T04:14:40.469Z,4.00
2022-07-31T04:17:08.553Z,4.50
2022-07-31T04:19:37.183Z,5.50
2022-07-31T04:22:05.153Z,4.60
2022-07-31T04:24:33.257Z,4.80
2022-07-31T04:27:01.034Z,4.60
2022-07-31T04:29:30.518Z,5.20
2022-07-31T04:31:58.209Z,5.23
2022-07-31T04:34:26.452Z,5.40
2022-07-31T04:36:56.495Z,4.60
2022-07-31T04:39:24.315Z,5.17
2022-07-31T04:41:52.057Z,4.70
2022-07-31T04:44:20.277Z,5.20
2022-07-31T04:46:48.223Z,5.83
2022-07-31T04:49:15.847Z,5.10
2022-07-31T04:51:47.275Z,5.67
2022-07-31T04:54:15.101Z,6.30
2022-07-31T04:56:43.199Z,5.37
2022-07-31T04:59:16.392Z,6.37
2022-07-31T05:01:45.214Z,5.57
2022-07-31T05:04:17.759Z,6.27
2022-07-31T05:06:46.432Z,5.53
2022-07-31T05:09:19.159Z,5.03
2022-07-31T05:11:48.691Z,4.53
2022-07-31T05:14:21.063Z,5.50
2022-07-31T05:16:51.864Z,5.27
2022-07-31T05:19:19.994Z,4.80
2022-07-31T05:21:53.687Z,5.60
2022-07-31T05:24:33.285Z,5.20
2022-07-31T05:27:03.569Z,5.83
2022-07-31T05:29:33.497Z,5.73
2022-07-31T05:32:01.878Z,5.90
2022-07-31T05:34:30.898Z,5.80
2022-07-31T05:37:03.159Z,6.50
2022-07-31T05:39:31.739Z,6.57
2022-07-31T05:42:02.218Z,6.17
2022-07-31T05:44:32.141Z,6.90
2022-07-31T05:49:29.486Z,6.77
2022-07-31T05:52:00.948Z,7.37
2022-07-31T05:54:29.084Z,7.30
2022-07-31T05:56:56.960Z,7.50
2022-07-31T05:59:25.759Z,7.80
2022-07-31T06:01:53.575Z,7.57
2022-07-31T06:04:22.539Z,7.80
2022-07-31T06:06:50.488Z,7.07
2022-07-31T06:09:18.041Z,7.83
2022-07-31T06:11:45.495Z,7.10
2022-07-31T06:14:14.899Z,7.50
2022-07-31T06:16:42.493Z,6.60
2022-07-31T06:19:10.278Z,7.00
2022-07-31T06:21:37.875Z,7.43
2022-07-31T06:24:06.654Z,6.97
2022-07-31T06:26:36.824Z,7.43
2022-07-31T06:29:06.274Z,7.13
2022-07-31T06:31:34.457Z,6.23
2022-07-31T06:34:02.442Z,6.47
2022-07-31T06:36:29.787Z,6.53
2022-07-31T06:38:58.403Z,6.87
2022-07-31T06:41:45.495Z,6.87
2022-07-31T06:44:13.554Z,7.13
2022-07-31T06:46:49.325Z,6.83
2022-07-31T06:49:18.438Z,7.33
2022-07-31T06:51:49.250Z,7.00
2022-07-31T06:54:16.579Z,7.57
2022-07-31T06:56:45.777Z,6.97
2022-07-31T06:59:15.332Z,7.13
2022-07-31T07:02:04.097Z,7.50
2022-07-31T07:05:04.751Z,6.57
2022-07-31T07:07:21.027Z,6.63
2022-07-31T07:09:49.377Z,6.77
2022-07-31T07:12:17.141Z,6.50
2022-07-31T07:14:48.367Z,6.80
2022-07-31T07:17:16.742Z,5.90
2022-07-31T07:19:44.862Z,6.50
2022-07-31T07:22:17.427Z,5.80
2022-07-31T07:25:00.404Z,6.43
2022-07-31T07:27:28.818Z,6.30
2022-07-31T07:29:57.297Z,6.77
2022-07-31T07:32:26.016Z,6.37
2022-07-31T07:34:59.370Z,6.90
2022-07-31T07:37:29.290Z,6.60
2022-07-31T07:40:03.470Z,6.43
2022-07-31T07:42:32.477Z,6.57
2022-07-31T07:45:00.342Z,6.30
2022-07-31T07:48:02.854Z,6.60
2022-07-31T07:50:18.240Z,6.70
2022-07-31T07:52:46.652Z,6.43
2022-07-31T07:55:15.197Z,6.10
2022-07-31T07:57:46.054Z,6.33
2022-07-31T08:00:15.282Z,6.90
2022-07-31T08:03:47.671Z,6.63
2022-07-31T08:05:33.360Z,7.03
2022-07-31T08:08:01.935Z,6.40
2022-07-31T08:10:33.082Z,6.73
2022-07-31T08:13:02.560Z,6.77
2022-07-31T08:15:31.659Z,7.50
2022-07-31T08:17:59.875Z,7.00
2022-07-31T08:20:29.083Z,7.50
2022-07-31T08:22:56.662Z,6.80
2022-07-31T08:25:24.651Z,7.17
2022-07-31T08:28:00.429Z,7.00
2022-07-31T08:30:31.079Z,7.23
2022-07-31T08:33:01.077Z,7.23
2022-07-31T08:35:29.545Z,7.07
2022-07-31T08:38:03.272Z,6.77
2022-07-31T08:40:34.785Z,7.17
2022-07-31T08:43:31.182Z,7.33
2022-07-31T08:46:03.416Z,6.50
2022-07-31T08:48:34.339Z,6.73
2022-07-31T08:51:04.586Z,7.07
2022-07-31T08:53:37.442Z,6.63
2022-07-31T08:56:07.358Z,5.57
2022-07-31T08:58:39.296Z,6.57
2022-07-31T09:01:12.113Z,5.57
2022-07-31T09:03:40.350Z,5.47
2022-07-31T09:06:08.695Z,5.37
2022-07-31T09:08:38.348Z,5.93
2022-07-31T09:11:09.519Z,5.10
2022-07-31T09:13:45.658Z,5.00
2022-07-31T09:16:31.250Z,5.40
2022-07-31T09:19:03.265Z,4.47
2022-07-31T09:21:51.891Z,5.53
2022-07-31T09:24:31.161Z,4.93
2022-07-31T09:27:07.654Z,5.20
2022-07-31T09:29:38.743Z,5.17
2022-07-31T09:32:14.775Z,4.13
2022-07-31T09:34:45.027Z,4.50
2022-07-31T09:37:17.540Z,4.90
2022-07-31T09:39:57.221Z,4.10
2022-07-31T09:42:38.229Z,3.97
2022-07-31T09:45:18.790Z,4.50
2022-07-31T09:47:48.890Z,3.80
2022-07-31T09:50:25.552Z,3.70
2022-07-31T09:53:00.446Z,3.50
2022-07-31T09:55:29.029Z,3.23
2022-07-31T09:58:02.932Z,3.17
2022-07-31T10:00:30.779Z,3.50
2022-07-31T10:03:00.745Z,3.10
2022-07-31T10:05:29.572Z,3.00
2022-07-31T10:08:01.396Z,3.30
2022-07-31T10:10:31.280Z,3.37
2022-07-31T10:13:03.829Z,3.23
2022-07-31T10:15:34.124Z,2.90
2022-07-31T10:18:03.543Z,3.10
2022-07-31T10:20:34.160Z,3.17
2022-07-31T10:23:19.887Z,2.30
2022-07-31T10:25:53.940Z,2.47
2022-07-31T10:28:23.672Z,2.33
2022-07-31T10:30:52.094Z,2.40
2022-07-31T10:33:42.515Z,2.10
2022-07-31T10:36:41.159Z,2.87
2022-07-31T10:39:26.191Z,2.30
2022-07-31T10:42:15.268Z,1.73
2022-07-31T10:44:51.537Z,1.70
2022-07-31T10:47:20.572Z,2.50
2022-07-31T10:49:50.253Z,1.90
2022-07-31T10:52:35.515Z,1.87
2022-07-31T10:55:03.078Z,2.20
2022-07-31T10:57:56.097Z,2.20
2022-07-31T11:00:29.785Z,2.07
2022-07-31T11:02:58.613Z,2.30
2022-07-31T11:05:28.582Z,2.33
2022-07-31T11:08:10.499Z,1.95
2022-07-31T11:10:38.417Z,1.98
2022-07-31T11:13:14.303Z,1.90
2022-07-31T11:15:42.117Z,2.10
2022-07-31T11:18:27.530Z,1.88
2022-07-31T11:21:09.548Z,2.00
2022-07-31T11:24:02.748Z,2.05
2022-07-31T11:26:41.526Z,1.92
2022-07-31T11:30:01.672Z,1.50
2022-07-31T11:32:08.208Z,2.42
2022-07-31T11:34:56.715Z,1.65
2022-07-31T11:37:46.414Z,1.42
2022-07-31T11:40:17.968Z,1.45
2022-07-31T11:42:52.559Z,1.50
2022-07-31T11:45:33.444Z,1.40
2022-07-31T11:48:12.604Z,1.15
2022-07-31T11:50:45.578Z,1.40
2022-07-31T11:53:14.265Z,1.95
2022-07-31T11:55:52.656Z,1.25
2022-07-31T11:58:22.324Z,1.50
2022-07-31T12:00:54.721Z,1.77
2022-07-31T12:03:25.016Z,1.90
2022-07-31T12:05:53.469Z,2.05
2022-07-31T12:08:22.583Z,1.40
2022-07-31T12:10:52.378Z,1.60
2022-07-31T12:13:21.251Z,1.38
2022-07-31T12:16:11.277Z,1.58
2022-07-31T12:18:59.936Z,1.63
2022-07-31T12:21:39.062Z,1.30
2022-07-31T12:24:14.930Z,1.20
2022-07-31T12:26:55.304Z,1.27
2022-07-31T12:29:35.021Z,1.25
2022-07-31T12:32:03.320Z,1.40
2022-07-31T12:34:36.649Z,1.70
2022-07-31T12:37:13.089Z,1.00
2022-07-31T12:39:59.883Z,1.10
2022-07-31T12:42:41.799Z,1.10
2022-07-31T12:45:19.687Z,1.08
2022-07-31T12:47:51.717Z,1.02
2022-07-31T12:50:24.338Z,0.93
2022-07-31T12:52:54.834Z,1.00
2022-07-31T12:55:23.136Z,0.98
2022-07-31T12:57:52.255Z,1.00
2022-07-31T13:00:23.444Z,1.25
2022-07-31T13:02:57.629Z,1.00
2022-07-31T13:05:26.079Z,1.08
2022-07-31T13:07:54.495Z,1.10
2022-07-31T13:10:24.649Z,1.15
2022-07-31T13:12:57.525Z,1.08
2022-07-31T13:15:31.950Z,1.17
2022-07-31T13:18:05.559Z,0.90
2022-07-31T13:20:33.647Z,0.98
2022-07-31T13:23:04.509Z,1.17
2022-07-31T13:25:32.384Z,1.20
2022-07-31T13:28:00.978Z,1.10
2022-07-31T13:30:29.626Z,1.50
2022-07-31T13:32:57.536Z,1.15
2022-07-31T13:35:29.078Z,0.90
2022-07-31T13:37:57.891Z,0.95
2022-07-31T13:40:44.374Z,0.95
2022-07-31T13:43:11.982Z,1.40
2022-07-31T13:45:39.335Z,1.25
2022-07-31T13:48:09.665Z,1.27
2022-07-31T13:50:42.372Z,1.10
2022-07-31T13:53:10.589Z,1.20
2022-07-31T13:55:41.253Z,1.13
2022-07-31T13:58:09.532Z,1.10
2022-07-31T14:00:38.394Z,1.13
2022-07-31T14:03:06.802Z,0.80
2022-07-31T14:05:40.133Z,1.27
2022-07-31T14:08:30.201Z,1.23
2022-07-31T14:10:56.458Z,0.90
2022-07-31T14:13:24.765Z,1.05
2022-07-31T14:15:53.301Z,0.93
2022-07-31T14:18:21.419Z,0.88
2022-07-31T14:20:49.000Z,0.80
2022-07-31T14:23:20.927Z,1.00
2022-07-31T14:26:03.628Z,0.93
2022-07-31T14:28:31.825Z,0.80
2022-07-31T14:31:00.341Z,0.80
2022-07-31T14:33:29.254Z,0.73
2022-07-31T14:35:56.769Z,0.85
2022-07-31T14:38:27.181Z,1.52
2022-07-31T14:40:55.513Z,1.00
2022-07-31T14:43:26.298Z,1.30
2022-07-31T14:45:53.766Z,0.93
2022-07-31T14:48:22.663Z,0.73
2022-07-31T14:50:50.698Z,0.98
2022-07-31T14:53:19.714Z,1.00
2022-07-31T14:55:47.759Z,1.55
2022-07-31T14:58:16.054Z,0.90
2022-07-31T15:00:43.657Z,1.10
2022-07-31T15:03:11.718Z,1.10
2022-07-31T15:06:51.411Z,1.05
2022-07-31T15:08:29.365Z,1.00
2022-07-31T15:10:58.132Z,0.80
2022-07-31T15:13:27.777Z,1.25
2022-07-31T15:15:57.711Z,0.70
2022-07-31T15:18:26.924Z,1.17
2022-07-31T15:20:55.338Z,1.85
2022-07-31T15:23:22.941Z,0.95
2022-07-31T15:25:50.674Z,0.80
2022-07-31T15:28:18.427Z,0.98
2022-07-31T15:30:46.562Z,0.98
2022-07-31T15:33:14.660Z,1.00
2022-07-31T15:35:42.833Z,0.80
2022-07-31T15:38:10.433Z,0.85
2022-07-31T15:40:38.453Z,0.90
2022-07-31T15:43:06.301Z,0.82
2022-07-31T15:45:36.527Z,0.75
2022-07-31T15:48:09.665Z,0.70
2022-07-31T15:50:39.250Z,0.80
2022-07-31T15:53:08.134Z,0.95
2022-07-31T15:55:35.770Z,0.60
2022-07-31T15:58:03.439Z,1.00
2022-07-31T16:00:32.074Z,1.00
2022-07-31T16:03:04.581Z,0.75
2022-07-31T16:05:37.044Z,0.80
2022-07-31T16:08:30.838Z,0.60
2022-07-31T16:11:00.665Z,0.93
2022-07-31T16:13:28.578Z,0.70
2022-07-31T16:15:56.516Z,0.70
2022-07-31T16:21:08.205Z,0.70
2022-07-31T16:23:35.934Z,0.75
2022-07-31T16:26:03.977Z,0.70
2022-07-31T16:28:32.629Z,0.77
2022-07-31T16:31:00.849Z,0.73
2022-07-31T16:33:28.777Z,0.60
2022-07-31T16:35:57.888Z,1.20
2022-07-31T16:38:26.446Z,0.90
2022-07-31T16:41:11.571Z,0.88
2022-07-31T16:43:50.892Z,0.95
2022-07-31T16:46:28.543Z,0.77
2022-07-31T16:48:56.914Z,0.80
2022-07-31T16:51:26.876Z,0.65
2022-07-31T16:54:13.624Z,1.00
2022-07-31T16:56:43.555Z,0.82
2022-07-31T16:59:12.381Z,0.80
2022-07-31T17:01:57.585Z,0.70
2022-07-31T17:04:28.416Z,0.82
2022-07-31T17:06:58.137Z,0.93
2022-07-31T17:09:27.486Z,1.05
2022-07-31T17:11:57.753Z,0.80
2022-07-31T17:14:26.871Z,0.85
2022-07-31T17:17:00.260Z,0.93
2022-07-31T17:19:42.573Z,0.88
2022-07-31T17:22:17.595Z,0.80
2022-07-31T17:24:51.230Z,1.23
2022-07-31T17:27:20.742Z,0.80
2022-07-31T17:29:49.187Z,1.00
2022-07-31T17:32:18.646Z,0.60
2022-07-31T17:34:47.625Z,0.90
2022-07-31T17:37:18.964Z,0.75
2022-07-31T17:39:48.157Z,1.05
2022-07-31T17:42:18.126Z,1.20
2022-07-31T17:44:55.146Z,0.75
2022-07-31T17:47:29.044Z,0.88
2022-07-31T17:49:58.047Z,1.00
2022-07-31T17:52:26.715Z,1.08
2022-07-31T17:54:56.567Z,1.13
2022-07-31T17:57:27.220Z,1.17
2022-07-31T17:59:56.895Z,1.25
2022-07-31T18:02:25.173Z,1.23
2022-07-31T18:04:53.374Z,1.05
2022-07-31T18:07:24.157Z,0.82
2022-07-31T18:09:52.403Z,1.00
2022-07-31T18:12:21.798Z,1.33
2022-07-31T18:14:50.567Z,1.45
2022-07-31T18:17:20.122Z,1.60
2022-07-31T18:19:49.020Z,2.47
2022-07-31T18:22:16.740Z,1.23
2022-07-31T18:24:47.223Z,1.30
2022-07-31T18:27:15.480Z,1.75
2022-07-31T18:29:43.202Z,1.60
2022-07-31T18:32:25.272Z,1.45
2022-07-31T18:34:53.351Z,1.77
2022-07-31T18:37:20.827Z,1.73
2022-07-31T18:39:49.232Z,1.50
2022-07-31T18:42:16.930Z,1.33
2022-07-31T18:44:45.651Z,1.30
2022-07-31T18:47:14.095Z,1.30
2022-07-31T18:51:01.286Z,1.10
2022-07-31T18:52:31.230Z,1.40
2022-07-31T18:55:01.764Z,2.30
2022-07-31T18:57:29.390Z,2.30
2022-07-31T18:59:57.653Z,1.60
2022-07-31T19:02:26.008Z,3.00
2022-07-31T19:04:53.758Z,3.47
2022-07-31T19:07:21.582Z,3.00
2022-07-31T19:09:50.370Z,2.90
2022-07-31T19:12:20.232Z,3.63
2022-07-31T19:14:48.402Z,3.23
2022-07-31T19:17:21.383Z,3.13
2022-07-31T19:19:54.437Z,2.87
2022-07-31T19:22:31.518Z,5.63
2022-07-31T19:25:01.112Z,5.43
2022-07-31T19:27:47.116Z,5.00
2022-07-31T19:30:17.314Z,4.90
2022-07-31T19:32:45.929Z,3.83
2022-07-31T19:35:13.880Z,2.03
2022-07-31T19:37:42.875Z,1.63
2022-07-31T19:40:11.265Z,1.67
2022-07-31T19:42:39.815Z,2.70
2022-07-31T19:45:07.532Z,2.47
2022-07-31T19:47:35.681Z,1.90
2022-07-31T19:50:03.712Z,2.10
2022-07-31T19:52:32.236Z,2.30
2022-07-31T19:55:00.052Z,3.50
2022-07-31T19:57:27.963Z,3.57
2022-07-31T19:59:55.402Z,1.47
2022-07-31T20:02:26.218Z,2.27
2022-07-31T20:04:53.994Z,3.93
2022-07-31T20:07:22.516Z,3.53
2022-07-31T20:09:50.134Z,4.70
2022-07-31T20:12:19.564Z,3.83
2022-07-31T20:14:50.116Z,3.90
2022-07-31T20:17:18.649Z,2.20
2022-07-31T20:20:12.547Z,2.20
2022-07-31T20:22:34.923Z,2.43
2022-07-31T20:25:02.753Z,2.93
2022-07-31T20:27:47.158Z,2.17
2022-07-31T20:30:15.126Z,2.83
2022-07-31T20:32:48.676Z,2.50
2022-07-31T20:35:29.301Z,3.10
2022-07-31T20:38:06.294Z,2.33
2022-07-31T20:40:35.405Z,1.50
2022-07-31T20:43:06.163Z,2.47
2022-07-31T20:45:34.263Z,2.13
2022-07-31T20:48:09.767Z,2.30
2022-07-31T20:50:38.845Z,2.37
2022-07-31T20:53:07.307Z,2.77
2022-07-31T20:55:38.877Z,2.00
2022-07-31T20:58:07.060Z,2.37
2022-07-31T21:00:42.441Z,2.33
2022-07-31T21:03:11.396Z,2.27
2022-07-31T21:05:40.461Z,2.03
2022-07-31T21:08:08.429Z,2.57
2022-07-31T21:10:39.682Z,1.90
2022-07-31T21:13:07.835Z,2.50
2022-07-31T21:15:41.699Z,1.80
2022-07-31T21:18:14.063Z,2.40
2022-07-31T21:20:52.414Z,2.23
2022-07-31T21:23:26.344Z,2.40
2022-07-31T21:25:56.239Z,2.43
2022-07-31T21:28:26.272Z,3.07
2022-07-31T21:30:58.258Z,2.87
2022-07-31T21:33:27.839Z,3.20
2022-07-31T21:35:56.062Z,2.63
2022-07-31T21:38:24.632Z,2.50
2022-07-31T21:40:52.644Z,2.87
2022-07-31T21:43:22.673Z,3.40
2022-07-31T21:45:57.169Z,3.40
2022-07-31T21:48:30.436Z,4.00
2022-07-31T21:51:01.282Z,4.37
2022-07-31T21:53:29.071Z,5.00
2022-07-31T21:56:02.939Z,9.80
2022-07-31T21:58:30.463Z,6.57
2022-07-31T22:00:58.512Z,4.60
2022-07-31T22:03:26.335Z,3.63
2022-07-31T22:06:12.111Z,3.23
2022-07-31T22:08:40.410Z,2.60
2022-07-31T22:11:08.628Z,2.90
2022-07-31T22:13:36.538Z,2.53
2022-07-31T22:16:04.241Z,2.90
2022-07-31T22:18:33.672Z,2.47
2022-07-31T22:21:09.256Z,2.30
2022-07-31T22:23:37.144Z,1.90
2022-07-31T22:26:05.472Z,2.93
2022-07-31T22:28:35.886Z,2.60
2022-07-31T22:31:04.987Z,2.93
2022-07-31T22:33:33.218Z,2.93
2022-07-31T22:36:03.186Z,2.30
2022-07-31T22:38:33.786Z,2.90
2022-07-31T22:41:02.153Z,2.70
2022-07-31T22:44:11.949Z,2.63
2022-07-31T22:46:18.491Z,2.63
2022-07-31T22:48:47.723Z,2.53
2022-07-31T22:51:17.688Z,3.00
2022-07-31T22:53:49.167Z,2.47
2022-07-31T22:56:18.193Z,2.73
2022-07-31T22:58:46.022Z,2.77
2022-07-31T23:01:13.839Z,2.60
2022-07-31T23:03:41.588Z,2.37
2022-07-31T23:06:31.431Z,2.67
2022-07-31T23:08:57.085Z,2.60
2022-07-31T23:11:25.617Z,2.63
2022-07-31T23:13:53.196Z,2.77
2022-07-31T23:16:21.001Z,3.07
2022-07-31T23:18:50.321Z,2.70
2022-07-31T23:21:19.100Z,3.27
2022-07-31T23:23:48.730Z,2.40
2022-07-31T23:26:21.832Z,3.20
2022-07-31T23:28:49.772Z,3.27
2022-07-31T23:31:18.920Z,3.00
2022-07-31T23:33:47.739Z,3.03
2022-07-31T23:36:16.417Z,2.77
2022-07-31T23:38:44.999Z,3.67
2022-07-31T23:41:13.326Z,5.10
2022-07-31T23:43:41.552Z,3.73
2022-07-31T23:46:26.610Z,3.10
2022-07-31T23:48:55.301Z,2.50
2022-07-31T23:51:23.913Z,3.00
2022-07-31T23:53:51.972Z,2.60
2022-07-31T23:56:20.003Z,2.50
2022-07-31T23:58:47.942Z,3.33
